createdAt,value
2022-08-22T00:01:37.086Z,52.48
2022-08-22T00:02:56.591Z,38.53
2022-08-22T00:03:11.074Z,49.10
2022-08-22T00:04:13.278Z,52.39
2022-08-22T00:06:50.917Z,53.13
2022-08-22T00:09:31.574Z,53.16
2022-08-22T00:12:07.783Z,53.01
2022-08-22T00:14:40.920Z,53.20
2022-08-22T00:17:26.998Z,53.34
2022-08-22T00:20:02.874Z,53.04
2022-08-22T00:22:35.780Z,53.50
2022-08-22T00:25:24.671Z,54.32
2022-08-22T00:27:56.669Z,54.66
2022-08-22T00:30:23.979Z,54.87
2022-08-22T00:32:59.040Z,54.63
2022-08-22T00:35:32.301Z,55.02
2022-08-22T00:38:05.984Z,55.31
2022-08-22T00:40:47.974Z,56.22
2022-08-22T00:43:52.735Z,55.70
2022-08-22T00:46:48.473Z,55.58
2022-08-22T00:49:31.113Z,56.83
2022-08-22T00:52:22.703Z,56.02
2022-08-22T00:55:04.071Z,56.22
2022-08-22T00:57:46.956Z,56.62
2022-08-22T01:00:18.456Z,56.60
2022-08-22T01:03:09.463Z,57.12
2022-08-22T01:05:50.639Z,56.29
2022-08-22T01:08:35.655Z,56.04
2022-08-22T01:11:16.810Z,56.40
2022-08-22T01:14:07.139Z,57.10
2022-08-22T01:16:52.575Z,57.43
2022-08-22T01:19:51.824Z,56.93
2022-08-22T01:22:48.979Z,57.37
2022-08-22T01:25:53.876Z,56.69
2022-08-22T01:29:08.489Z,58.02
2022-08-22T01:32:28.641Z,57.20
2022-08-22T01:35:15.783Z,56.67
2022-08-22T01:38:12.597Z,56.55
2022-08-22T01:41:14.823Z,57.06
2022-08-22T01:43:59.602Z,56.76
2022-08-22T01:46:46.901Z,56.85
2022-08-22T01:49:19.083Z,57.23
2022-08-22T01:51:53.839Z,57.07
2022-08-22T01:54:44.535Z,57.56
2022-08-22T01:57:12.431Z,58.04
2022-08-22T01:59:42.993Z,57.66
2022-08-22T02:02:23.220Z,58.02
2022-08-22T02:05:01.582Z,58.23
2022-08-22T02:07:40.066Z,57.89
2022-08-22T02:10:15.813Z,57.87
2022-08-22T02:12:45.683Z,57.85
2022-08-22T02:15:22.075Z,58.24
2022-08-22T02:18:02.329Z,57.77
2022-08-22T02:20:33.696Z,58.35
2022-08-22T02:23:09.144Z,58.09
2022-08-22T02:25:51.343Z,58.66
2022-08-22T02:28:31.865Z,58.99
2022-08-22T02:31:05.492Z,59.27
2022-08-22T02:33:38.477Z,59.16
2022-08-22T02:36:18.580Z,59.05
2022-08-22T02:38:58.509Z,59.00
2022-08-22T02:41:32.626Z,58.95
2022-08-22T02:44:03.339Z,60.06
2022-08-22T02:46:41.577Z,59.96
2022-08-22T02:49:16.871Z,59.41
2022-08-22T02:51:53.079Z,59.35
2022-08-22T02:54:26.883Z,60.94
2022-08-22T02:57:00.764Z,60.71
2022-08-22T02:59:34.769Z,60.63
2022-08-22T03:02:25.323Z,60.91
2022-08-22T03:04:54.425Z,61.33
2022-08-22T03:07:33.420Z,60.92
2022-08-22T03:10:13.288Z,61.92
2022-08-22T03:12:47.315Z,61.67
2022-08-22T03:15:23.663Z,61.69
2022-08-22T03:17:55.521Z,62.39
2022-08-22T03:20:45.376Z,62.56
2022-08-22T03:23:20.385Z,62.31
2022-08-22T03:25:54.617Z,61.78
2022-08-22T03:28:27.742Z,61.79
2022-08-22T03:31:00.641Z,61.35
2022-08-22T03:33:29.867Z,62.50
2022-08-22T03:36:06.896Z,62.59
2022-08-22T03:39:16.567Z,62.13
2022-08-22T03:42:12.132Z,62.09
2022-08-22T03:44:58.477Z,62.28
2022-08-22T03:48:01.266Z,62.39
2022-08-22T03:51:06.198Z,62.41
2022-08-22T03:53:48.531Z,62.31
2022-08-22T03:56:47.914Z,62.22
2022-08-22T03:59:48.672Z,61.56
2022-08-22T04:02:43.492Z,60.93
2022-08-22T04:05:41.081Z,60.26
2022-08-22T04:08:28.879Z,60.17
2022-08-22T04:11:16.614Z,59.91
2022-08-22T04:13:58.616Z,59.75
2022-08-22T04:17:00.155Z,59.72
2022-08-22T04:19:57.464Z,59.18
2022-08-22T04:22:39.907Z,59.29
2022-08-22T04:25:11.618Z,58.91
2022-08-22T04:27:52.107Z,58.55
2022-08-22T04:30:25.284Z,57.89
2022-08-22T04:33:00.759Z,57.42
2022-08-22T04:35:31.167Z,57.15
2022-08-22T04:38:02.584Z,56.82
2022-08-22T04:40:36.008Z,56.36
2022-08-22T04:43:10.900Z,55.73
2022-08-22T04:45:41.437Z,55.31
2022-08-22T04:48:17.621Z,54.77
2022-08-22T04:50:51.790Z,54.41
2022-08-22T04:53:30.122Z,54.02
2022-08-22T04:56:07.614Z,53.52
2022-08-22T04:58:45.275Z,53.48
2022-08-22T05:01:18.376Z,52.95
2022-08-22T05:03:52.794Z,52.59
2022-08-22T05:06:23.360Z,52.22
2022-08-22T05:08:54.160Z,50.96
2022-08-22T05:11:23.871Z,48.85
2022-08-22T05:13:55.079Z,47.83
2022-08-22T05:16:29.334Z,47.92
2022-08-22T05:19:02.526Z,47.73
2022-08-22T05:21:32.294Z,47.96
2022-08-22T05:24:05.132Z,46.86
2022-08-22T05:26:38.528Z,46.38
2022-08-22T05:29:09.512Z,46.00
2022-08-22T05:31:41.880Z,45.69
2022-08-22T05:34:13.862Z,46.00
2022-08-22T05:36:45.119Z,45.57
2022-08-22T05:39:15.556Z,43.61
2022-08-22T05:42:14.618Z,41.82
2022-08-22T05:44:41.479Z,41.89
2022-08-22T05:47:21.234Z,41.79
2022-08-22T05:49:57.661Z,41.88
2022-08-22T05:52:36.992Z,41.81
2022-08-22T05:55:17.208Z,42.28
2022-08-22T05:57:49.984Z,43.28
2022-08-22T06:00:21.587Z,44.63
2022-08-22T06:03:03.245Z,45.58
2022-08-22T06:05:34.421Z,45.42
2022-08-22T06:08:06.492Z,47.88
2022-08-22T06:10:40.968Z,46.68
2022-08-22T06:13:12.004Z,46.82
2022-08-22T06:15:49.668Z,46.09
2022-08-22T06:18:22.510Z,46.39
2022-08-22T06:20:54.853Z,45.28
2022-08-22T06:23:26.196Z,43.59
2022-08-22T06:25:57.816Z,41.86
2022-08-22T06:28:26.901Z,39.80
2022-08-22T06:30:57.037Z,38.70
2022-08-22T06:33:27.450Z,38.63
2022-08-22T06:36:01.641Z,37.81
2022-08-22T06:38:31.439Z,37.19
2022-08-22T06:41:00.897Z,37.87
2022-08-22T06:43:36.701Z,39.13
2022-08-22T06:46:04.156Z,39.89
2022-08-22T06:48:31.613Z,39.84
2022-08-22T06:51:00.906Z,39.59
2022-08-22T06:53:32.686Z,39.26
2022-08-22T06:56:01.768Z,39.28
2022-08-22T06:58:34.224Z,38.99
2022-08-22T07:01:12.205Z,38.53
2022-08-22T07:03:43.786Z,38.79
2022-08-22T07:06:15.806Z,39.11
2022-08-22T07:08:42.588Z,38.85
2022-08-22T07:11:15.690Z,37.76
2022-08-22T07:13:45.601Z,36.71
2022-08-22T07:16:12.514Z,36.82
2022-08-22T07:18:47.127Z,36.32
2022-08-22T07:21:24.912Z,35.55
2022-08-22T07:23:52.427Z,35.67
2022-08-22T07:26:28.955Z,35.66
2022-08-22T07:28:59.619Z,33.64
2022-08-22T07:31:35.165Z,33.98
2022-08-22T07:34:16.314Z,33.74
2022-08-22T07:36:49.725Z,31.86
2022-08-22T07:39:25.938Z,30.65
2022-08-22T07:42:06.491Z,29.73
2022-08-22T07:44:43.877Z,29.17
2022-08-22T07:47:15.202Z,28.66
2022-08-22T07:49:53.040Z,27.41
2022-08-22T07:52:22.854Z,26.59
2022-08-22T07:54:54.524Z,25.39
2022-08-22T07:57:26.746Z,25.84
2022-08-22T07:59:55.986Z,25.52
2022-08-22T08:02:24.231Z,25.25
2022-08-22T08:04:54.428Z,25.92
2022-08-22T08:07:26.458Z,26.11
2022-08-22T08:09:57.577Z,25.04
2022-08-22T08:12:30.476Z,25.57
2022-08-22T08:14:58.665Z,24.88
2022-08-22T08:17:32.058Z,25.89
2022-08-22T08:20:03.700Z,25.20
2022-08-22T08:22:33.421Z,24.68
2022-08-22T08:25:01.945Z,25.03
2022-08-22T08:27:31.132Z,24.58
2022-08-22T08:30:02.173Z,25.42
2022-08-22T08:32:32.243Z,25.32
2022-08-22T08:35:02.267Z,25.62
2022-08-22T08:37:36.452Z,26.36
2022-08-22T08:40:18.097Z,25.93
2022-08-22T08:43:01.478Z,25.67
2022-08-22T08:46:02.162Z,26.34
2022-08-22T08:49:06.396Z,26.75
2022-08-22T08:51:57.140Z,26.38
2022-08-22T08:54:49.190Z,24.76
2022-08-22T08:57:28.268Z,24.16
2022-08-22T09:00:05.707Z,25.02
2022-08-22T09:02:48.023Z,26.59
2022-08-22T09:05:35.800Z,26.49
2022-08-22T09:08:29.047Z,26.77
2022-08-22T09:14:21.186Z,26.58
2022-08-22T09:17:09.707Z,26.10
2022-08-22T09:20:03.593Z,25.34
2022-08-22T09:23:18.503Z,26.21
2022-08-22T09:25:50.359Z,26.20
2022-08-22T09:28:24.426Z,26.89
2022-08-22T09:37:06.012Z,26.10
2022-08-22T09:39:45.708Z,26.92
2022-08-22T09:42:23.814Z,28.05
2022-08-22T09:48:43.580Z,27.70
2022-08-22T09:51:32.686Z,27.22
2022-08-22T09:57:37.629Z,26.69
2022-08-22T10:00:22.702Z,26.22
2022-08-22T10:03:02.716Z,26.15
2022-08-22T10:05:35.198Z,25.71
2022-08-22T10:08:31.952Z,25.71
2022-08-22T10:11:24.583Z,26.11
2022-08-22T10:14:01.311Z,26.55
2022-08-22T10:16:57.059Z,26.87
2022-08-22T10:19:29.872Z,26.33
2022-08-22T10:22:30.250Z,26.71
2022-08-22T10:25:09.791Z,27.24
2022-08-22T10:27:55.020Z,26.30
2022-08-22T10:30:27.646Z,26.96
2022-08-22T10:33:03.248Z,26.11
2022-08-22T10:35:37.537Z,26.02
2022-08-22T10:38:12.405Z,26.39
2022-08-22T10:40:43.028Z,26.52
2022-08-22T10:43:13.925Z,25.55
2022-08-22T10:45:45.175Z,25.43
2022-08-22T10:48:35.224Z,24.64
2022-08-22T10:51:18.177Z,25.01
2022-08-22T10:53:57.516Z,24.51
2022-08-22T10:56:29.468Z,24.48
2022-08-22T10:59:06.995Z,24.02
2022-08-22T11:01:43.999Z,23.11
2022-08-22T11:04:27.982Z,23.17
2022-08-22T11:07:09.414Z,22.77
2022-08-22T11:09:42.172Z,22.60
2022-08-22T11:12:20.016Z,23.39
2022-08-22T11:15:09.144Z,23.05
2022-08-22T11:18:07.878Z,22.68
2022-08-22T11:20:53.295Z,22.72
2022-08-22T11:23:36.467Z,22.67
2022-08-22T11:26:13.562Z,21.98
2022-08-22T11:29:13.181Z,21.75
2022-08-22T11:31:51.389Z,21.19
2022-08-22T11:34:31.439Z,21.48
2022-08-22T11:37:04.928Z,20.67
2022-08-22T11:39:43.305Z,20.88
2022-08-22T11:42:21.911Z,20.62
2022-08-22T11:44:53.896Z,19.98
2022-08-22T11:47:26.764Z,20.45
2022-08-22T11:50:02.583Z,20.54
2022-08-22T11:52:56.890Z,20.53
2022-08-22T11:55:34.630Z,20.57
2022-08-22T11:58:22.477Z,20.87
2022-08-22T12:01:00.253Z,21.26
2022-08-22T12:03:43.395Z,21.07
2022-08-22T12:06:30.446Z,22.09
2022-08-22T12:09:15.660Z,21.14
2022-08-22T12:11:56.452Z,20.20
2022-08-22T12:14:31.799Z,20.51
2022-08-22T12:17:10.761Z,20.91
2022-08-22T12:20:16.065Z,21.00
2022-08-22T12:23:02.458Z,20.82
2022-08-22T12:25:49.421Z,20.92
2022-08-22T12:28:27.912Z,20.97
2022-08-22T12:31:14.331Z,21.51
2022-08-22T12:34:11.553Z,22.11
2022-08-22T12:36:58.618Z,20.89
2022-08-22T12:39:41.095Z,23.12
2022-08-22T12:42:21.536Z,22.99
2022-08-22T12:45:05.899Z,22.89
2022-08-22T12:47:44.374Z,22.85
2022-08-22T12:50:25.038Z,24.20
2022-08-22T12:53:10.481Z,22.79
2022-08-22T12:55:52.848Z,21.58
2022-08-22T12:58:34.581Z,21.95
2022-08-22T13:01:06.349Z,22.34
2022-08-22T13:03:36.908Z,21.09
2022-08-22T13:06:25.184Z,20.72
2022-08-22T13:08:52.867Z,20.66
2022-08-22T13:11:22.971Z,21.17
2022-08-22T13:14:06.705Z,21.07
2022-08-22T13:16:48.994Z,20.95
2022-08-22T13:19:22.722Z,20.75
2022-08-22T13:21:55.000Z,21.84
2022-08-22T13:24:38.453Z,20.89
2022-08-22T13:27:14.119Z,21.25
2022-08-22T13:29:49.373Z,22.13
2022-08-22T13:32:23.438Z,21.96
2022-08-22T13:34:53.454Z,22.58
2022-08-22T13:37:25.717Z,22.12
2022-08-22T13:40:02.565Z,22.57
2022-08-22T13:42:32.231Z,22.65
2022-08-22T13:45:04.679Z,21.63
2022-08-22T13:47:35.819Z,21.41
2022-08-22T13:50:12.373Z,20.78
2022-08-22T13:52:52.313Z,20.51
2022-08-22T13:55:29.606Z,21.20
2022-08-22T13:58:00.714Z,21.73
2022-08-22T14:01:06.031Z,22.06
2022-08-22T14:03:40.927Z,21.72
2022-08-22T14:06:35.241Z,20.89
2022-08-22T14:09:14.272Z,21.03
2022-08-22T14:11:45.895Z,21.45
2022-08-22T14:14:19.935Z,22.14
2022-08-22T14:16:49.428Z,21.04
2022-08-22T14:19:27.393Z,20.71
2022-08-22T14:21:59.570Z,20.38
2022-08-22T14:24:31.480Z,20.85
2022-08-22T14:27:05.559Z,20.51
2022-08-22T14:29:41.962Z,20.74
2022-08-22T14:32:32.568Z,20.59
2022-08-22T14:35:21.669Z,21.24
2022-08-22T14:38:17.473Z,21.13
2022-08-22T14:40:47.115Z,21.05
2022-08-22T14:43:22.334Z,21.26
2022-08-22T14:45:56.876Z,21.04
2022-08-22T14:48:39.291Z,21.31
2022-08-22T14:51:17.667Z,20.58
2022-08-22T14:53:48.505Z,20.41
2022-08-22T14:56:20.823Z,20.85
2022-08-22T14:58:55.337Z,21.16
2022-08-22T15:01:25.030Z,20.85
2022-08-22T15:03:54.780Z,20.04
2022-08-22T15:06:37.080Z,19.23
2022-08-22T15:09:08.339Z,19.43
2022-08-22T15:11:37.309Z,19.45
2022-08-22T15:14:13.686Z,19.33
2022-08-22T15:16:45.139Z,19.72
2022-08-22T15:19:23.958Z,19.42
2022-08-22T15:22:06.958Z,19.84
2022-08-22T15:24:39.206Z,20.06
2022-08-22T15:27:10.326Z,20.08
2022-08-22T15:29:50.428Z,19.31
2022-08-22T15:32:22.202Z,19.55
2022-08-22T15:34:52.377Z,19.68
2022-08-22T15:37:33.081Z,19.61
2022-08-22T15:40:10.332Z,19.41
2022-08-22T15:42:42.254Z,20.20
2022-08-22T15:45:20.286Z,19.99
2022-08-22T15:47:52.498Z,20.56
2022-08-22T15:50:35.031Z,20.69
2022-08-22T15:53:24.430Z,21.14
2022-08-22T15:56:23.437Z,21.31
2022-08-22T15:59:09.102Z,21.16
2022-08-22T16:01:52.782Z,21.54
2022-08-22T16:04:35.668Z,21.76
2022-08-22T16:07:17.962Z,21.67
2022-08-22T16:13:41.190Z,21.69
2022-08-22T16:16:13.364Z,22.79
2022-08-22T16:19:30.926Z,22.48
2022-08-22T16:22:23.489Z,23.23
2022-08-22T16:25:12.541Z,23.61
2022-08-22T16:27:55.754Z,23.92
2022-08-22T16:30:38.575Z,23.46
2022-08-22T16:33:14.840Z,23.92
2022-08-22T16:39:11.442Z,24.94
2022-08-22T16:41:42.347Z,25.09
2022-08-22T16:44:40.730Z,25.17
2022-08-22T16:47:14.683Z,24.90
2022-08-22T16:49:56.953Z,25.12
2022-08-22T16:52:53.086Z,24.51
2022-08-22T16:55:56.355Z,24.59
2022-08-22T16:59:06.082Z,25.00
2022-08-22T17:01:56.353Z,25.04
2022-08-22T17:04:35.223Z,25.67
2022-08-22T17:07:34.100Z,25.16
2022-08-22T17:10:27.009Z,26.54
2022-08-22T17:13:06.968Z,26.62
2022-08-22T17:15:52.671Z,27.32
2022-08-22T17:18:35.572Z,27.11
2022-08-22T17:21:11.399Z,28.09
2022-08-22T17:23:53.533Z,28.51
2022-08-22T17:26:37.682Z,28.84
2022-08-22T17:29:15.382Z,29.05
2022-08-22T17:31:50.627Z,30.29
2022-08-22T17:34:33.461Z,30.35
2022-08-22T17:37:10.331Z,30.52
2022-08-22T17:40:01.290Z,30.40
2022-08-22T17:42:57.135Z,30.62
2022-08-22T17:45:36.807Z,31.04
2022-08-22T17:48:12.314Z,31.57
2022-08-22T17:50:44.631Z,31.28
2022-08-22T17:53:25.300Z,31.19
2022-08-22T17:56:02.281Z,31.76
2022-08-22T17:58:43.510Z,31.48
2022-08-22T18:01:14.926Z,32.28
2022-08-22T18:03:49.958Z,32.23
2022-08-22T18:06:21.613Z,32.24
2022-08-22T18:11:47.661Z,32.65
2022-08-22T18:14:25.568Z,32.56
2022-08-22T18:16:55.484Z,32.80
2022-08-22T18:19:39.840Z,32.91
2022-08-22T18:22:10.990Z,32.79
2022-08-22T18:24:44.560Z,33.25
2022-08-22T18:27:30.081Z,33.61
2022-08-22T18:30:15.414Z,33.73
2022-08-22T18:32:51.249Z,33.86
2022-08-22T18:35:27.445Z,33.68
2022-08-22T18:38:02.563Z,33.63
2022-08-22T18:40:46.923Z,34.00
2022-08-22T18:43:19.958Z,33.95
2022-08-22T18:46:25.308Z,34.12
2022-08-22T18:49:14.080Z,33.96
2022-08-22T18:51:41.298Z,34.59
2022-08-22T18:54:36.649Z,34.74
2022-08-22T18:57:25.872Z,34.91
2022-08-22T19:00:06.207Z,35.25
2022-08-22T19:02:55.932Z,35.06
2022-08-22T19:06:08.289Z,35.63
2022-08-22T19:08:57.663Z,35.47
2022-08-22T19:11:39.651Z,36.04
2022-08-22T19:14:15.185Z,35.43
2022-08-22T19:17:02.383Z,35.71
2022-08-22T19:19:41.736Z,35.59
2022-08-22T19:22:24.692Z,36.33
2022-08-22T19:25:14.598Z,35.97
2022-08-22T19:27:43.838Z,35.78
2022-08-22T19:30:40.333Z,36.04
2022-08-22T19:33:10.694Z,36.47
2022-08-22T19:36:06.943Z,36.71
2022-08-22T19:38:57.889Z,36.41
2022-08-22T19:41:45.468Z,36.78
2022-08-22T19:44:33.508Z,36.27
2022-08-22T19:47:07.197Z,37.08
2022-08-22T19:49:39.679Z,36.66
2022-08-22T19:52:19.086Z,36.25
2022-08-22T19:54:54.372Z,36.48
2022-08-22T19:57:34.011Z,36.97
2022-08-22T20:00:06.128Z,36.95
2022-08-22T20:03:14.269Z,37.02
2022-08-22T20:05:57.023Z,37.04
2022-08-22T20:08:54.466Z,37.44
2022-08-22T20:11:38.809Z,37.31
2022-08-22T20:14:30.650Z,37.61
2022-08-22T20:17:02.171Z,37.03
2022-08-22T20:19:38.164Z,37.05
2022-08-22T20:22:07.874Z,36.95
2022-08-22T20:24:40.048Z,36.94
2022-08-22T20:27:16.230Z,37.00
2022-08-22T20:29:49.909Z,37.12
2022-08-22T20:32:23.319Z,36.83
2022-08-22T20:34:55.278Z,37.08
2022-08-22T20:37:45.477Z,37.55
2022-08-22T20:40:55.897Z,37.64
2022-08-22T20:43:30.770Z,37.01
2022-08-22T20:46:12.706Z,37.40
2022-08-22T20:48:47.021Z,37.35
2022-08-22T20:51:17.404Z,37.46
2022-08-22T20:53:51.709Z,37.35
2022-08-22T20:56:31.840Z,37.68
2022-08-22T20:59:01.206Z,37.51
2022-08-22T21:01:32.331Z,37.72
2022-08-22T21:03:59.421Z,37.61
2022-08-22T21:06:32.062Z,38.06
2022-08-22T21:09:10.831Z,38.35
2022-08-22T21:11:39.756Z,38.40
2022-08-22T21:14:19.024Z,38.35
2022-08-22T21:16:48.257Z,38.49
2022-08-22T21:19:20.598Z,38.37
2022-08-22T21:21:47.485Z,38.19
2022-08-22T21:24:14.557Z,38.40
2022-08-22T21:27:00.843Z,38.29
2022-08-22T21:29:32.682Z,38.69
2022-08-22T21:32:18.649Z,39.03
2022-08-22T21:34:49.013Z,38.97
2022-08-22T21:37:18.197Z,39.19
2022-08-22T21:39:53.556Z,39.41
2022-08-22T21:42:37.498Z,39.46
2022-08-22T21:45:07.875Z,39.89
2022-08-22T21:47:38.440Z,39.82
2022-08-22T21:50:13.692Z,39.83
2022-08-22T21:52:44.092Z,39.32
2022-08-22T21:55:27.589Z,39.56
2022-08-22T21:58:12.593Z,40.04
2022-08-22T22:00:49.017Z,40.22
2022-08-22T22:03:21.449Z,39.88
2022-08-22T22:05:49.316Z,40.21
2022-08-22T22:08:17.092Z,40.37
2022-08-22T22:10:45.830Z,40.57
2022-08-22T22:13:12.623Z,40.77
2022-08-22T22:15:41.898Z,40.34
2022-08-22T22:18:08.751Z,40.54
2022-08-22T22:20:37.281Z,40.66
2022-08-22T22:23:04.732Z,40.99
2022-08-22T22:25:40.058Z,41.65
2022-08-22T22:28:12.776Z,41.58
2022-08-22T22:30:41.277Z,41.73
2022-08-22T22:33:07.960Z,41.92
2022-08-22T22:35:37.433Z,42.41
2022-08-22T22:38:03.965Z,43.03
2022-08-22T22:40:31.130Z,43.09
2022-08-22T22:42:57.771Z,43.37
2022-08-22T22:45:24.498Z,43.17
2022-08-22T22:47:51.078Z,43.44
2022-08-22T22:50:17.827Z,43.63
2022-08-22T22:52:45.731Z,42.91
2022-08-22T22:55:12.325Z,43.13
2022-08-22T22:57:51.353Z,42.88
2022-08-22T23:00:29.116Z,43.13
2022-08-22T23:02:57.818Z,43.21
2022-08-22T23:05:24.370Z,42.99
2022-08-22T23:07:52.317Z,42.76
2022-08-22T23:10:22.052Z,43.06
2022-08-22T23:12:48.970Z,42.83
2022-08-22T23:15:15.691Z,43.12
2022-08-22T23:17:42.524Z,43.46
2022-08-22T23:20:09.769Z,42.81
2022-08-22T23:22:36.496Z,43.11
2022-08-22T23:25:05.207Z,42.29
2022-08-22T23:27:32.452Z,42.30
2022-08-22T23:29:59.327Z,42.11
2022-08-22T23:32:25.838Z,41.37
2022-08-22T23:34:53.503Z,41.23
2022-08-22T23:37:21.683Z,41.10
2022-08-22T23:39:48.891Z,41.06
2022-08-22T23:42:17.564Z,41.02
2022-08-22T23:44:44.829Z,40.75
2022-08-22T23:47:12.545Z,41.15
2022-08-22T23:49:40.559Z,41.55
2022-08-22T23:52:08.492Z,40.92
2022-08-22T23:54:35.170Z,40.35
2022-08-22T23:57:11.946Z,40.55
2022-08-22T23:59:48.054Z,40.84
